Time;durP1;ratioP1;P1;durP2;ratioP2;P2;SDS_P1;SDS_P2;PMS_P1;PMS_P2;Temp;Humidity;BMP_temperature;BMP_pressure;BME280_temperature;BME280_humidity;BME280_pressure;Samples;Min_cycle;Max_cycle;Signal;HPM_P1;HPM_P2
2022/08/23 00:07:56;;;;;;;1.13;0.50;;;23.60;52.50;;;;;;20889045;28;20041;-81
2022/08/23 00:17:56;;;;;;;1.15;0.65;;;23.60;52.50;;;;;;20876059;28;20053;-82
2022/08/23 00:27:57;;;;;;;2.15;0.70;;;23.60;52.60;;;;;;20858884;28;20068;-82
2022/08/23 00:37:57;;;;;;;1.70;0.90;;;23.60;52.70;;;;;;20841810;28;20028;-83
2022/08/23 00:47:58;;;;;;;2.05;0.88;;;23.60;52.70;;;;;;20857637;28;20033;-82
2022/08/23 00:57:59;;;;;;;0.88;0.68;;;23.50;52.60;;;;;;20875965;28;20041;-82
2022/08/23 01:07:59;;;;;;;1.45;1.02;;;23.60;52.70;;;;;;20872735;28;20095;-81
2022/08/23 01:18:05;;;;;;;1.52;0.90;;;23.50;52.60;;;;;;21228486;22;20091;-82
2022/08/23 01:28:06;;;;;;;1.67;0.70;;;23.60;52.70;;;;;;20884647;28;20028;-83
2022/08/23 01:38:07;;;;;;;3.97;1.20;;;23.50;52.70;;;;;;20887813;28;20067;-83
2022/08/23 01:48:08;;;;;;;1.80;0.70;;;23.50;52.70;;;;;;20870487;28;20025;-82
2022/08/23 01:58:09;;;;;;;3.13;0.90;;;23.50;52.70;;;;;;20858797;28;20156;-82
2022/08/23 02:18:31;;;;;;;1.77;0.85;;;23.50;52.80;;;;;;20873009;28;20170;-82
2022/08/23 02:28:31;;;;;;;0.80;0.80;;;23.40;52.80;;;;;;20871780;28;20546;-82
2022/08/23 02:38:32;;;;;;;2.17;0.90;;;23.50;52.90;;;;;;20882724;28;20083;-82
2022/08/23 02:48:33;;;;;;;1.87;1.27;;;23.40;52.90;;;;;;20867357;28;20111;-83
2022/08/23 02:58:37;;;;;;;2.57;1.30;;;23.40;52.90;;;;;;20867535;28;20378;-81
2022/08/23 03:08:38;;;;;;;2.53;0.90;;;23.40;52.90;;;;;;20881791;28;20047;-83
2022/08/23 03:18:39;;;;;;;1.15;0.93;;;23.40;52.90;;;;;;20916129;28;20131;-81
2022/08/23 03:28:41;;;;;;;1.85;1.25;;;23.30;52.90;;;;;;20880624;28;20036;-82
2022/08/23 03:38:44;;;;;;;1.15;0.98;;;23.30;52.90;;;;;;20864598;28;20046;-82
2022/08/23 03:48:44;;;;;;;0.98;0.75;;;23.30;53.60;;;;;;20879438;28;20029;-82
2022/08/23 03:58:45;;;;;;;1.08;0.82;;;23.30;53.00;;;;;;20877359;28;20040;-82
2022/08/23 04:08:46;;;;;;;1.33;0.85;;;23.30;53.00;;;;;;20878436;28;20025;-83
2022/08/23 04:18:48;;;;;;;1.98;0.82;;;23.20;52.90;;;;;;20878683;28;20040;-82
2022/08/23 04:28:50;;;;;;;2.22;1.30;;;23.20;52.90;;;;;;20860779;28;20164;-80
2022/08/23 04:38:51;;;;;;;1.70;0.95;;;23.20;52.90;;;;;;20875790;28;20087;-81
2022/08/23 04:48:52;;;;;;;1.80;1.10;;;23.20;52.90;;;;;;20857125;28;20035;-81
2022/08/23 04:58:53;;;;;;;1.33;0.80;;;23.20;52.90;;;;;;20871436;28;20090;-80
2022/08/23 05:08:54;;;;;;;2.17;1.10;;;23.20;52.90;;;;;;20855287;28;20478;-82
2022/08/23 05:18:55;;;;;;;2.22;1.17;;;23.10;52.80;;;;;;20873936;28;20037;-82
2022/08/23 05:28:55;;;;;;;1.20;0.70;;;23.20;52.80;;;;;;20905271;28;20032;-82
2022/08/23 05:39:03;;;;;;;1.20;0.93;;;23.10;52.80;;;;;;20887940;28;20040;-83
2022/08/23 05:49:06;;;;;;;2.57;1.30;;;23.10;52.80;;;;;;20872145;28;20033;-82
2022/08/23 05:59:08;;;;;;;3.53;1.40;;;23.10;52.80;;;;;;20870009;28;20090;-82
2022/08/23 06:09:12;;;;;;;1.52;1.33;;;23.10;52.90;;;;;;20879339;28;20032;-82
2022/08/23 06:19:13;;;;;;;2.30;1.33;;;23.10;53.00;;;;;;20870669;28;20099;-83
2022/08/23 06:29:22;;;;;;;1.10;0.93;;;23.10;52.90;;;;;;20894443;28;20040;-80
2022/08/23 06:39:35;;;;;;;2.20;0.98;;;23.10;53.00;;;;;;20873759;28;20161;-76
2022/08/23 06:49:51;;;;;;;2.15;0.90;;;23.10;53.00;;;;;;20896932;28;20028;-82
2022/08/23 06:59:59;;;;;;;1.55;1.10;;;23.10;53.00;;;;;;20884487;28;20124;-80
2022/08/23 07:10:18;;;;;;;2.45;1.00;;;23.10;53.10;;;;;;20892151;28;20045;-79
2022/08/23 07:20:19;;;;;;;1.25;0.85;;;23.20;53.20;;;;;;20891864;28;20048;-79
2022/08/23 07:30:19;;;;;;;1.85;0.98;;;23.20;53.20;;;;;;20877412;28;20052;-83
2022/08/23 07:40:21;;;;;;;1.60;1.02;;;23.20;53.20;;;;;;20867477;28;20073;-75
2022/08/23 07:50:27;;;;;;;1.17;0.93;;;23.20;53.10;;;;;;20913025;28;20422;-77
2022/08/23 08:00:30;;;;;;;2.00;0.88;;;23.20;53.10;;;;;;20884558;28;20124;-75
2022/08/23 08:10:48;;;;;;;1.80;1.10;;;23.20;53.10;;;;;;20897510;28;20036;-77
2022/08/23 08:20:49;;;;;;;1.38;1.15;;;23.30;53.20;;;;;;20880854;28;20477;-75
2022/08/23 08:31:12;;;;;;;1.13;0.88;;;23.30;53.20;;;;;;20892726;28;20040;-77
2022/08/23 08:41:18;;;;;;;1.48;0.80;;;23.30;53.20;;;;;;20859378;28;20040;-74
2022/08/23 08:51:46;;;;;;;1.08;0.85;;;23.30;53.20;;;;;;20867239;28;20032;-75
2022/08/23 09:01:50;;;;;;;1.70;1.10;;;23.30;53.20;;;;;;20884449;28;20057;-73
2022/08/23 09:12:11;;;;;;;4.07;1.20;;;23.40;53.40;;;;;;20859905;28;20029;-74
2022/08/23 09:22:13;;;;;;;;;;;23.30;53.30;;;;;;20895232;28;20047;-78
2022/08/23 09:32:32;;;;;;;3.95;0.88;;;23.30;53.30;;;;;;20882003;28;19919;-71
2022/08/23 09:42:36;;;;;;;1.85;0.95;;;23.40;53.30;;;;;;20865816;28;20132;-73
2022/08/23 09:52:38;;;;;;;0.93;0.70;;;23.40;53.30;;;;;;20839565;28;20029;-74
2022/08/23 10:02:39;;;;;;;1.33;0.70;;;23.40;53.30;;;;;;20850577;28;20048;-76
2022/08/23 10:12:48;;;;;;;1.15;0.85;;;23.40;53.30;;;;;;20851547;28;20107;-78
2022/08/23 10:22:58;;;;;;;0.95;0.77;;;23.40;53.30;;;;;;20869920;28;20045;-75
2022/08/23 10:33:18;;;;;;;1.92;0.80;;;23.40;53.30;;;;;;20870978;28;20447;-76
2022/08/23 10:43:43;;;;;;;1.25;0.65;;;23.50;53.40;;;;;;20873110;28;20045;-76
2022/08/23 10:53:55;;;;;;;0.60;0.60;;;23.50;53.60;;;;;;20905488;28;20075;-79
2022/08/23 11:04:08;;;;;;;1.35;0.82;;;23.50;53.70;;;;;;20885724;28;20045;-81
2022/08/23 11:14:35;;;;;;;1.27;0.63;;;23.40;53.60;;;;;;20869913;28;20426;-80
2022/08/23 11:24:51;;;;;;;1.85;0.75;;;23.50;53.60;;;;;;20867640;28;20041;-76
2022/08/23 11:35:11;;;;;;;0.70;0.50;;;23.50;53.50;;;;;;20889584;28;20090;-76
2022/08/23 11:45:33;;;;;;;2.03;0.47;;;23.40;53.30;;;;;;20880386;28;20049;-75
2022/08/23 11:55:59;;;;;;;0.98;0.40;;;23.50;53.20;;;;;;20888733;28;20052;-74
2022/08/23 12:06:33;;;;;;;2.10;0.63;;;23.50;53.20;;;;;;20886544;28;20041;-74
2022/08/23 12:16:34;;;;;;;2.17;0.65;;;23.50;53.10;;;;;;20891104;28;20041;-74
2022/08/23 12:26:41;;;;;;;2.33;0.90;;;23.50;53.00;;;;;;20864136;28;20052;-75
2022/08/23 12:36:47;;;;;;;1.08;0.65;;;23.50;52.90;;;;;;20913088;28;20434;-75
2022/08/23 12:46:47;;;;;;;1.42;0.60;;;23.50;52.90;;;;;;20877882;28;20039;-76
2022/08/23 12:56:50;;;;;;;2.58;0.70;;;23.50;52.90;;;;;;20896111;28;20443;-76
2022/08/23 13:06:55;;;;;;;1.63;0.57;;;23.50;52.90;;;;;;20894468;28;20390;-78
2022/08/23 13:16:57;;;;;;;;;;;23.50;52.90;;;;;;20873202;28;20037;-77
2022/08/23 13:27:19;;;;;;;5.53;1.13;;;23.60;53.00;;;;;;20911957;28;19908;-77
2022/08/23 13:37:24;;;;;;;1.85;0.47;;;23.60;53.00;;;;;;20909853;28;20040;-78
2022/08/23 13:47:25;;;;;;;2.45;0.93;;;23.60;53.00;;;;;;20863942;28;20047;-80
2022/08/23 13:57:26;;;;;;;1.73;0.70;;;23.70;52.90;;;;;;20851629;28;20471;-78
2022/08/23 14:07:26;;;;;;;3.53;0.88;;;23.70;52.90;;;;;;20892801;28;20028;-80
2022/08/23 14:17:27;;;;;;;3.28;0.98;;;23.80;52.80;;;;;;20905893;28;20087;-80
2022/08/23 14:27:27;;;;;;;2.90;0.73;;;23.90;52.80;;;;;;20891557;28;20138;-79
2022/08/23 14:37:28;;;;;;;3.20;0.73;;;24.00;52.80;;;;;;20902998;28;20457;-76
2022/08/23 14:47:29;;;;;;;2.93;0.73;;;24.10;52.80;;;;;;20888290;28;20044;-86
2022/08/23 14:57:29;;;;;;;7.18;1.10;;;24.20;52.70;;;;;;20887476;28;20342;-88
2022/08/23 15:07:30;;;;;;;2.65;0.88;;;24.30;53.20;;;;;;20913212;28;20032;-84
2022/08/23 15:17:33;;;;;;;3.33;0.90;;;24.40;52.40;;;;;;20876165;28;20131;-80
2022/08/23 15:27:34;;;;;;;1.48;0.98;;;24.50;52.20;;;;;;20894042;28;20275;-74
2022/08/23 15:37:35;;;;;;;2.60;1.05;;;24.70;52.20;;;;;;20875346;28;20404;-77
2022/08/23 15:47:49;;;;;;;3.05;0.95;;;24.70;52.10;;;;;;20865249;28;20041;-80
2022/08/23 15:57:51;;;;;;;3.17;0.80;;;24.70;51.90;;;;;;20865250;28;20041;-79
2022/08/23 16:07:53;;;;;;;1.95;0.90;;;24.80;51.90;;;;;;20861873;28;20032;-76
2022/08/23 16:17:54;;;;;;;2.38;0.93;;;24.90;51.60;;;;;;20869831;28;20055;-75
2022/08/23 16:27:54;;;;;;;2.10;0.87;;;24.90;51.00;;;;;;20905396;28;20115;-76
2022/08/23 16:37:55;;;;;;;2.33;0.80;;;24.90;50.90;;;;;;20887452;28;20295;-77
2022/08/23 16:47:56;;;;;;;0.50;0.50;;;24.90;50.80;;;;;;20887623;28;20346;-77
2022/08/23 16:57:57;;;;;;;3.22;0.63;;;24.90;50.90;;;;;;20874238;28;20079;-74
2022/08/23 17:07:57;;;;;;;1.33;0.80;;;24.90;51.00;;;;;;20872968;28;20166;-68
2022/08/23 17:17:59;;;;;;;0.95;0.70;;;24.80;51.00;;;;;;20888418;28;20040;-72
2022/08/23 17:28:03;;;;;;;2.08;1.00;;;24.80;51.10;;;;;;20907422;28;20035;-83
2022/08/23 17:38:05;;;;;;;1.77;0.82;;;24.70;51.00;;;;;;20866528;28;20107;-83
2022/08/23 17:48:06;;;;;;;2.30;1.00;;;24.70;51.30;;;;;;20873972;28;20033;-82
2022/08/23 17:58:06;;;;;;;1.65;1.00;;;24.60;50.60;;;;;;20889203;28;20132;-87
2022/08/23 18:08:07;;;;;;;2.10;0.80;;;24.60;50.70;;;;;;20894371;28;20378;-80
2022/08/23 18:18:08;;;;;;;1.88;0.90;;;24.50;50.90;;;;;;20914321;28;20219;-81
2022/08/23 18:28:17;;;;;;;1.52;1.10;;;24.50;51.10;;;;;;20907591;28;20091;-80
2022/08/23 18:38:17;;;;;;;3.60;1.15;;;24.50;51.30;;;;;;20890977;28;20389;-80
2022/08/23 18:48:18;;;;;;;0.93;0.60;;;24.50;51.40;;;;;;20906924;28;20063;-79
2022/08/23 18:58:19;;;;;;;1.77;1.08;;;24.50;51.60;;;;;;20878787;28;20033;-81
2022/08/23 19:08:19;;;;;;;1.57;0.50;;;24.40;51.70;;;;;;20887155;28;20126;-82
2022/08/23 19:18:20;;;;;;;2.78;0.75;;;24.40;51.80;;;;;;20917734;28;20311;-81
2022/08/23 19:28:22;;;;;;;1.42;0.70;;;24.40;52.00;;;;;;20915823;28;20067;-81
2022/08/23 19:38:23;;;;;;;1.67;0.70;;;24.30;52.10;;;;;;20873867;28;20037;-81
2022/08/23 19:48:23;;;;;;;1.92;0.82;;;24.30;52.20;;;;;;20859010;28;20037;-81
2022/08/23 19:58:24;;;;;;;3.05;0.70;;;24.20;52.30;;;;;;20896504;28;20073;-81
2022/08/23 20:08:25;;;;;;;1.23;0.70;;;24.30;52.50;;;;;;20913129;28;20703;-80
2022/08/23 20:18:25;;;;;;;0.82;0.52;;;24.30;52.60;;;;;;20879584;28;20395;-83
2022/08/23 20:28:26;;;;;;;1.55;0.60;;;24.20;52.60;;;;;;20882947;28;20033;-83
2022/08/23 20:38:30;;;;;;;3.42;0.75;;;24.20;52.70;;;;;;20882654;28;20048;-83
2022/08/23 20:48:30;;;;;;;0.88;0.60;;;24.20;52.80;;;;;;20885261;28;20096;-83
2022/08/23 20:58:31;;;;;;;2.90;0.80;;;24.20;52.80;;;;;;20877865;28;20033;-81
2022/08/23 21:08:32;;;;;;;2.77;0.77;;;24.10;52.80;;;;;;20897561;28;20366;-81
2022/08/23 21:18:33;;;;;;;3.17;0.60;;;24.20;52.90;;;;;;20881023;28;20080;-80
2022/08/23 21:28:34;;;;;;;1.38;0.70;;;24.10;52.80;;;;;;20875541;28;20033;-81
2022/08/23 21:38:35;;;;;;;0.88;0.60;;;24.20;52.90;;;;;;20875749;28;20041;-82
2022/08/23 21:48:36;;;;;;;1.00;0.63;;;24.10;52.80;;;;;;20909545;28;20048;-82
2022/08/23 21:58:36;;;;;;;3.85;0.60;;;24.10;52.80;;;;;;20874809;28;20040;-82
2022/08/23 22:08:37;;;;;;;1.50;1.00;;;24.10;52.80;;;;;;20908793;28;20025;-82
2022/08/23 22:18:37;;;;;;;1.73;0.80;;;24.10;52.80;;;;;;20876101;28;20521;-83
2022/08/23 22:28:38;;;;;;;2.05;0.65;;;24.10;52.80;;;;;;20872414;28;20063;-80
2022/08/23 22:38:39;;;;;;;1.15;0.75;;;24.10;52.80;;;;;;20873129;28;20040;-83
2022/08/23 22:48:39;;;;;;;1.17;0.60;;;24.10;52.70;;;;;;20892643;28;20037;-81
2022/08/23 22:58:40;;;;;;;3.53;0.82;;;24.10;52.70;;;;;;20895768;28;20319;-81
2022/08/23 23:08:41;;;;;;;2.15;0.80;;;24.10;52.70;;;;;;20901637;28;20067;-82
2022/08/23 23:20:35;;;;;;;1.58;0.85;;;24.10;52.70;;;;;;20904321;28;20045;-80
2022/08/23 23:29:03;;;;;;;1.67;0.90;;;24.00;52.70;;;;;;20903836;28;20032;-82
2022/08/23 23:39:04;;;;;;;1.38;0.60;;;24.00;52.70;;;;;;20883142;28;20037;-81
2022/08/23 23:49:05;;;;;;;1.80;1.02;;;24.00;52.70;;;;;;20883751;28;20045;-81
2022/08/23 23:59:06;;;;;;;0.82;0.80;;;24.00;52.70;;;;;;20880495;28;20032;-82
